createdAt,value
2023-02-15T00:02:03.515Z,56.37
2023-02-15T00:04:50.817Z,41.57
2023-02-15T00:07:19.781Z,75.33
2023-02-15T00:09:48.057Z,50.17
2023-02-15T00:12:16.278Z,44.10
2023-02-15T00:14:43.331Z,96.07
2023-02-15T00:17:10.546Z,98.50
2023-02-15T00:19:37.823Z,53.30
2023-02-15T00:22:04.937Z,51.77
2023-02-15T00:24:31.902Z,37.87
2023-02-15T00:26:58.879Z,56.17
2023-02-15T00:29:26.343Z,38.70
2023-02-15T00:31:53.713Z,46.30
2023-02-15T00:34:26.073Z,49.23
2023-02-15T00:36:53.479Z,50.87
2023-02-15T00:39:21.230Z,42.53
2023-02-15T00:41:48.775Z,42.60
2023-02-15T00:44:16.528Z,40.17
2023-02-15T00:46:43.902Z,48.13
2023-02-15T00:49:11.546Z,53.23
2023-02-15T00:51:39.180Z,41.10
2023-02-15T00:54:06.695Z,55.47
2023-02-15T00:56:33.610Z,33.97
2023-02-15T00:59:00.665Z,64.30
2023-02-15T01:01:27.920Z,71.77
2023-02-15T01:03:55.001Z,39.97
2023-02-15T01:06:21.945Z,39.50
2023-02-15T01:08:49.567Z,66.93
2023-02-15T01:11:23.252Z,43.00
2023-02-15T01:13:56.331Z,40.37
2023-02-15T01:16:24.827Z,49.63
2023-02-15T01:18:52.096Z,43.70
2023-02-15T01:21:21.864Z,60.13
2023-02-15T01:23:49.337Z,36.87
2023-02-15T01:26:17.144Z,43.10
2023-02-15T01:28:44.191Z,43.47
2023-02-15T01:31:18.193Z,40.23
2023-02-15T01:33:46.077Z,54.07
2023-02-15T01:36:13.259Z,49.47
2023-02-15T01:38:43.378Z,50.83
2023-02-15T01:41:27.226Z,48.87
2023-02-15T01:43:57.326Z,34.30
2023-02-15T01:46:30.360Z,66.90
2023-02-15T01:49:12.778Z,62.23
2023-02-15T01:51:42.446Z,49.00
2023-02-15T01:54:18.806Z,53.37
2023-02-15T01:56:46.943Z,89.43
2023-02-15T01:59:19.703Z,52.57
2023-02-15T02:01:47.552Z,70.60
2023-02-15T02:04:36.442Z,73.43
2023-02-15T02:07:05.411Z,75.70
2023-02-15T02:09:33.306Z,63.53
2023-02-15T02:12:00.846Z,50.93
2023-02-15T02:14:27.912Z,50.43
2023-02-15T02:17:15.422Z,57.33
2023-02-15T02:20:21.308Z,67.10
2023-02-15T02:23:25.376Z,49.53
2023-02-15T02:26:18.819Z,60.47
2023-02-15T02:29:23.433Z,62.30
2023-02-15T02:32:09.280Z,64.43
2023-02-15T02:34:42.545Z,55.27
2023-02-15T02:37:21.146Z,54.60
2023-02-15T02:39:58.809Z,52.30
2023-02-15T02:42:42.533Z,52.50
2023-02-15T02:45:22.932Z,65.30
2023-02-15T02:48:31.501Z,60.30
2023-02-15T02:50:58.424Z,56.93
2023-02-15T02:53:25.554Z,56.53
2023-02-15T02:55:57.816Z,89.40
2023-02-15T02:58:41.143Z,40.63
2023-02-15T03:01:21.320Z,48.87
2023-02-15T03:04:25.989Z,52.93
2023-02-15T03:06:58.708Z,57.50
2023-02-15T03:09:35.819Z,68.50
2023-02-15T03:12:06.327Z,46.47
2023-02-15T03:14:33.457Z,57.67
2023-02-15T03:17:01.538Z,67.53
2023-02-15T03:19:33.979Z,66.33
2023-02-15T03:22:20.429Z,62.17
2023-02-15T03:25:20.148Z,41.47
2023-02-15T03:27:59.643Z,45.80
2023-02-15T03:30:29.593Z,37.73
2023-02-15T03:32:59.921Z,51.37
2023-02-15T03:35:35.250Z,50.13
2023-02-15T03:38:04.771Z,46.23
2023-02-15T03:41:03.511Z,43.00
2023-02-15T03:43:39.736Z,62.97
2023-02-15T03:46:14.867Z,43.50
2023-02-15T03:48:47.005Z,35.57
2023-02-15T03:51:35.522Z,46.57
2023-02-15T03:54:13.609Z,38.07
2023-02-15T03:56:43.074Z,66.67
2023-02-15T03:59:28.484Z,50.37
2023-02-15T04:02:33.558Z,37.20
2023-02-15T04:05:00.465Z,31.40
2023-02-15T04:07:27.404Z,37.93
2023-02-15T04:10:13.169Z,35.90
2023-02-15T04:12:40.071Z,36.20
2023-02-15T04:15:25.794Z,51.47
2023-02-15T04:17:52.744Z,58.70
2023-02-15T04:20:38.417Z,44.50
2023-02-15T04:23:26.799Z,48.77
2023-02-15T04:25:53.759Z,46.87
2023-02-15T04:28:20.719Z,37.13
2023-02-15T04:30:47.948Z,36.03
2023-02-15T04:33:14.839Z,49.23
2023-02-15T04:35:41.876Z,44.87
2023-02-15T04:38:08.968Z,44.43
2023-02-15T04:40:35.959Z,39.53
2023-02-15T04:43:02.886Z,44.13
2023-02-15T04:45:29.961Z,37.97
2023-02-15T04:47:57.048Z,59.43
2023-02-15T04:50:24.157Z,41.97
2023-02-15T04:52:51.134Z,38.57
2023-02-15T04:55:18.138Z,44.43
2023-02-15T04:57:45.113Z,31.53
2023-02-15T05:00:12.707Z,29.63
2023-02-15T05:02:39.660Z,34.10
2023-02-15T05:05:07.040Z,40.50
2023-02-15T05:07:34.053Z,33.10
2023-02-15T05:10:01.031Z,42.43
2023-02-15T05:12:27.988Z,31.87
2023-02-15T05:14:54.896Z,37.20
2023-02-15T05:17:21.922Z,38.27
2023-02-15T05:19:48.836Z,33.70
2023-02-15T05:22:15.835Z,36.90
2023-02-15T05:25:01.191Z,29.27
2023-02-15T05:27:46.927Z,29.40
2023-02-15T05:30:14.944Z,46.17
2023-02-15T05:32:42.264Z,42.30
2023-02-15T05:35:13.695Z,59.03
2023-02-15T05:37:40.656Z,47.50
2023-02-15T05:40:09.818Z,47.73
2023-02-15T05:42:36.774Z,31.60
2023-02-15T05:45:04.894Z,38.13
2023-02-15T05:47:31.888Z,39.50
2023-02-15T05:49:58.814Z,46.30
2023-02-15T05:52:25.878Z,41.40
2023-02-15T05:54:52.777Z,45.70
2023-02-15T05:57:19.785Z,37.80
2023-02-15T05:59:46.687Z,43.67
2023-02-15T06:02:14.213Z,33.33
2023-02-15T06:04:41.154Z,45.00
2023-02-15T06:07:08.139Z,34.23
2023-02-15T06:09:35.068Z,39.93
2023-02-15T06:12:02.054Z,35.83
2023-02-15T06:14:29.136Z,35.27
2023-02-15T06:16:56.274Z,30.77
2023-02-15T06:19:23.787Z,35.43
2023-02-15T06:21:51.149Z,32.93
2023-02-15T06:24:18.052Z,30.33
2023-02-15T06:26:45.119Z,48.70
2023-02-15T06:29:12.109Z,65.50
2023-02-15T06:31:40.312Z,36.07
2023-02-15T06:34:07.419Z,35.07
2023-02-15T06:36:34.470Z,37.33
2023-02-15T06:39:01.656Z,34.63
2023-02-15T06:41:28.840Z,39.53
2023-02-15T06:43:55.843Z,28.90
2023-02-15T06:46:23.051Z,35.97
2023-02-15T06:48:50.066Z,37.13
2023-02-15T06:51:17.396Z,34.87
2023-02-15T06:53:45.135Z,38.17
2023-02-15T06:56:12.913Z,37.37
2023-02-15T06:58:41.246Z,28.47
2023-02-15T07:01:09.347Z,37.93
2023-02-15T07:03:37.208Z,35.93
2023-02-15T07:06:09.266Z,34.00
2023-02-15T07:08:37.875Z,30.70
2023-02-15T07:11:24.862Z,33.37
2023-02-15T07:13:53.467Z,31.13
2023-02-15T07:16:21.456Z,28.30
2023-02-15T07:18:48.611Z,29.73
2023-02-15T07:21:15.762Z,28.63
2023-02-15T07:23:42.806Z,29.67
2023-02-15T07:26:10.112Z,25.17
2023-02-15T07:28:37.451Z,24.80
2023-02-15T07:31:05.948Z,43.23
2023-02-15T07:33:34.001Z,30.23
2023-02-15T07:36:03.688Z,30.73
2023-02-15T07:38:36.635Z,29.87
2023-02-15T07:41:06.740Z,31.43
2023-02-15T07:43:38.841Z,29.73
2023-02-15T07:46:08.865Z,29.07
2023-02-15T07:48:37.174Z,22.77
2023-02-15T07:51:07.030Z,39.03
2023-02-15T07:53:35.098Z,31.60
2023-02-15T07:56:07.724Z,24.00
2023-02-15T07:58:54.002Z,25.63
2023-02-15T08:01:30.587Z,21.53
2023-02-15T08:03:58.938Z,34.73
2023-02-15T08:06:28.720Z,27.77
2023-02-15T08:08:55.794Z,23.87
2023-02-15T08:11:35.149Z,29.33
2023-02-15T08:14:19.696Z,24.43
2023-02-15T08:16:49.151Z,41.17
2023-02-15T08:19:20.752Z,27.00
2023-02-15T08:21:50.663Z,33.57
2023-02-15T08:24:20.725Z,24.73
2023-02-15T08:26:48.840Z,26.00
2023-02-15T08:29:23.542Z,33.60
2023-02-15T08:31:53.711Z,34.17
2023-02-15T08:34:22.251Z,25.70
2023-02-15T08:36:49.460Z,26.87
2023-02-15T08:39:17.014Z,27.43
2023-02-15T08:41:46.907Z,25.60
2023-02-15T08:44:16.538Z,23.47
2023-02-15T08:46:45.470Z,27.20
2023-02-15T08:49:19.164Z,25.07
2023-02-15T08:51:47.149Z,25.30
2023-02-15T08:54:16.888Z,20.20
2023-02-15T08:56:45.081Z,27.90
2023-02-15T08:59:23.511Z,27.17
2023-02-15T09:01:52.468Z,28.10
2023-02-15T09:04:20.158Z,29.23
2023-02-15T09:06:49.339Z,23.73
2023-02-15T09:09:17.835Z,27.03
2023-02-15T09:11:47.367Z,19.13
2023-02-15T09:14:21.250Z,27.70
2023-02-15T09:16:50.516Z,29.07
2023-02-15T09:19:19.265Z,25.37
2023-02-15T09:21:47.822Z,21.47
2023-02-15T09:24:16.973Z,20.53
2023-02-15T09:26:46.723Z,25.80
2023-02-15T09:29:15.345Z,21.20
2023-02-15T09:31:45.486Z,21.47
2023-02-15T09:34:19.877Z,25.57
2023-02-15T09:36:47.904Z,22.20
2023-02-15T09:39:26.511Z,21.80
2023-02-15T09:41:56.454Z,18.27
2023-02-15T09:44:42.249Z,19.03
2023-02-15T09:47:44.481Z,18.30
2023-02-15T09:50:23.357Z,22.90
2023-02-15T09:53:15.441Z,19.47
2023-02-15T09:56:01.217Z,21.07
2023-02-15T09:58:53.706Z,20.80
2023-02-15T10:01:39.821Z,20.10
2023-02-15T10:04:22.012Z,17.93
2023-02-15T10:07:02.755Z,22.77
2023-02-15T10:09:51.222Z,24.63
2023-02-15T10:12:37.659Z,15.77
2023-02-15T10:15:19.467Z,23.83
2023-02-15T10:18:17.286Z,22.43
2023-02-15T10:20:44.260Z,17.57
2023-02-15T10:23:20.054Z,18.27
2023-02-15T10:26:02.912Z,18.37
2023-02-15T10:28:41.156Z,17.83
2023-02-15T10:31:11.319Z,18.90
2023-02-15T10:33:43.852Z,18.17
2023-02-15T10:36:23.324Z,16.90
2023-02-15T10:39:30.499Z,16.93
2023-02-15T10:42:17.606Z,17.70
2023-02-15T10:44:56.546Z,19.07
2023-02-15T10:48:21.075Z,18.50
2023-02-15T10:50:55.255Z,17.03
2023-02-15T10:53:38.705Z,16.53
2023-02-15T10:56:23.451Z,19.53
2023-02-15T10:59:02.569Z,20.13
2023-02-15T11:01:34.555Z,16.67
2023-02-15T11:04:39.020Z,16.63
2023-02-15T11:07:29.799Z,17.73
2023-02-15T11:10:20.881Z,19.80
2023-02-15T11:12:49.250Z,21.70
2023-02-15T11:15:35.689Z,20.17
2023-02-15T11:18:25.650Z,20.43
2023-02-15T11:20:55.853Z,19.23
2023-02-15T11:23:25.320Z,19.90
2023-02-15T11:26:01.551Z,18.93
2023-02-15T11:28:48.490Z,18.20
2023-02-15T11:31:22.139Z,19.30
2023-02-15T11:33:56.522Z,21.43
2023-02-15T11:36:27.812Z,17.70
2023-02-15T11:39:03.149Z,18.00
2023-02-15T11:41:35.671Z,19.17
2023-02-15T11:44:13.330Z,17.03
2023-02-15T11:46:40.409Z,20.77
2023-02-15T11:49:32.024Z,21.33
2023-02-15T11:52:01.057Z,17.83
2023-02-15T11:54:31.065Z,17.67
2023-02-15T11:57:07.684Z,15.87
2023-02-15T11:59:38.713Z,16.73
2023-02-15T12:02:21.532Z,17.17
2023-02-15T12:05:02.500Z,16.97
2023-02-15T12:07:39.063Z,16.93
2023-02-15T12:10:41.482Z,24.77
2023-02-15T12:13:20.343Z,18.33
2023-02-15T12:15:53.988Z,18.63
2023-02-15T12:18:33.691Z,20.17
2023-02-15T12:21:07.907Z,19.30
2023-02-15T12:23:35.993Z,18.23
2023-02-15T12:26:03.822Z,19.07
2023-02-15T12:28:42.099Z,19.53
2023-02-15T12:31:22.273Z,19.97
2023-02-15T12:33:51.928Z,17.70
2023-02-15T12:36:21.806Z,22.23
2023-02-15T12:39:18.859Z,20.63
2023-02-15T12:42:07.659Z,17.87
2023-02-15T12:44:37.025Z,20.20
2023-02-15T12:47:09.951Z,20.50
2023-02-15T12:49:38.545Z,18.67
2023-02-15T12:52:21.281Z,19.63
2023-02-15T12:54:52.622Z,18.87
2023-02-15T12:57:40.548Z,19.60
2023-02-15T13:00:28.685Z,19.33
2023-02-15T13:03:00.888Z,18.80
2023-02-15T13:05:45.099Z,18.47
2023-02-15T13:08:21.596Z,19.53
2023-02-15T13:11:11.126Z,41.00
2023-02-15T13:13:57.358Z,19.40
2023-02-15T13:16:37.518Z,18.23
2023-02-15T13:19:24.489Z,17.63
2023-02-15T13:21:53.982Z,18.00
2023-02-15T13:24:54.924Z,17.73
2023-02-15T13:27:25.359Z,39.43
2023-02-15T13:29:59.719Z,19.80
2023-02-15T13:32:36.160Z,20.40
2023-02-15T13:35:08.149Z,21.50
2023-02-15T13:38:23.734Z,19.93
2023-02-15T13:41:04.561Z,17.10
2023-02-15T13:43:40.671Z,18.47
2023-02-15T13:46:44.086Z,20.17
2023-02-15T13:49:27.168Z,21.70
2023-02-15T13:51:56.859Z,20.33
2023-02-15T13:54:26.580Z,21.37
2023-02-15T13:57:17.876Z,21.33
2023-02-15T14:00:05.141Z,25.13
2023-02-15T14:03:02.737Z,21.27
2023-02-15T14:05:33.709Z,23.10
2023-02-15T14:08:34.020Z,23.07
2023-02-15T14:11:09.446Z,24.53
2023-02-15T14:14:24.456Z,25.30
2023-02-15T14:17:07.711Z,23.80
2023-02-15T14:19:51.144Z,26.27
2023-02-15T14:22:37.484Z,22.57
2023-02-15T14:25:15.799Z,23.70
2023-02-15T14:27:53.296Z,24.00
2023-02-15T14:30:32.520Z,24.40
2023-02-15T14:33:15.785Z,24.77
2023-02-15T14:35:44.381Z,24.17
2023-02-15T14:38:37.540Z,27.07
2023-02-15T14:41:29.953Z,25.73
2023-02-15T14:44:22.086Z,22.27
2023-02-15T14:46:52.127Z,23.00
2023-02-15T14:49:26.399Z,26.57
2023-02-15T14:51:57.973Z,24.00
2023-02-15T14:54:24.926Z,32.80
2023-02-15T14:57:03.981Z,28.63
2023-02-15T14:59:59.469Z,22.53
2023-02-15T15:02:45.040Z,22.63
2023-02-15T15:05:36.903Z,24.00
2023-02-15T15:08:06.601Z,20.63
2023-02-15T15:10:41.662Z,21.27
2023-02-15T15:13:33.538Z,24.10
2023-02-15T15:16:26.310Z,23.03
2023-02-15T15:18:56.075Z,25.10
2023-02-15T15:21:48.477Z,28.10
2023-02-15T15:24:38.567Z,24.77
2023-02-15T15:27:41.562Z,25.93
2023-02-15T15:30:14.655Z,27.47
2023-02-15T15:32:56.647Z,29.87
2023-02-15T15:35:48.854Z,28.73
2023-02-15T15:38:38.045Z,31.00
2023-02-15T15:41:38.558Z,28.77
2023-02-15T15:44:43.215Z,31.27
2023-02-15T15:47:36.380Z,42.63
2023-02-15T15:50:16.180Z,41.97
2023-02-15T15:52:56.956Z,31.97
2023-02-15T15:55:27.908Z,157.60
2023-02-15T15:58:07.491Z,38.07
2023-02-15T16:00:34.555Z,33.30
2023-02-15T16:03:01.940Z,46.27
2023-02-15T16:05:36.510Z,254.60
2023-02-15T16:08:03.500Z,147.47
2023-02-15T16:10:33.731Z,161.63
2023-02-15T16:13:01.924Z,165.27
2023-02-15T16:15:53.962Z,453.50
2023-02-15T16:18:26.811Z,225.10
2023-02-15T16:21:00.190Z,293.73
2023-02-15T16:23:36.368Z,288.03
2023-02-15T16:26:25.507Z,345.53
2023-02-15T16:28:54.664Z,256.07
2023-02-15T16:31:25.706Z,114.60
2023-02-15T16:33:56.997Z,216.53
2023-02-15T16:36:26.612Z,97.50
2023-02-15T16:38:53.512Z,128.50
2023-02-15T16:41:24.774Z,66.83
2023-02-15T16:43:54.084Z,169.53
2023-02-15T16:46:41.015Z,275.63
2023-02-15T16:49:28.633Z,206.07
2023-02-15T16:52:02.158Z,51.23
2023-02-15T16:54:32.244Z,68.47
2023-02-15T16:56:59.856Z,41.07
2023-02-15T16:59:38.874Z,66.63
2023-02-15T17:02:08.160Z,78.30
2023-02-15T17:04:36.944Z,163.40
2023-02-15T17:07:21.635Z,63.17
2023-02-15T17:09:57.011Z,60.13
2023-02-15T17:12:57.296Z,75.43
2023-02-15T17:15:50.198Z,87.47
2023-02-15T17:18:22.830Z,98.20
2023-02-15T17:20:53.035Z,110.53
2023-02-15T17:23:44.637Z,116.85
2023-02-15T17:26:23.837Z,54.17
2023-02-15T17:28:57.339Z,66.90
2023-02-15T17:31:29.667Z,96.20
2023-02-15T17:33:59.358Z,112.40
2023-02-15T17:36:30.381Z,65.20
2023-02-15T17:39:02.790Z,59.60
2023-02-15T17:41:32.243Z,158.97
2023-02-15T17:43:59.132Z,50.57
2023-02-15T17:46:27.785Z,71.30
2023-02-15T17:48:56.200Z,53.03
2023-02-15T17:51:23.918Z,71.67
2023-02-15T17:56:38.980Z,82.03
2023-02-15T17:59:07.768Z,88.83
2023-02-15T18:05:05.993Z,74.83
2023-02-15T18:07:51.700Z,32.13
2023-02-15T18:10:38.501Z,48.53
2023-02-15T18:13:05.415Z,48.03
2023-02-15T18:15:32.458Z,51.23
2023-02-15T18:17:59.593Z,52.33
2023-02-15T18:20:31.936Z,40.30
2023-02-15T18:22:58.934Z,71.67
2023-02-15T18:25:25.997Z,69.73
2023-02-15T18:27:55.084Z,64.13
2023-02-15T18:30:25.611Z,55.80
2023-02-15T18:32:56.786Z,58.63
2023-02-15T18:35:26.653Z,47.07
2023-02-15T18:37:54.512Z,59.63
2023-02-15T18:40:24.799Z,45.90
2023-02-15T18:42:51.855Z,59.37
2023-02-15T18:45:22.416Z,50.67
2023-02-15T18:47:49.671Z,69.87
2023-02-15T18:50:18.893Z,76.97
2023-02-15T18:52:53.319Z,50.13
2023-02-15T18:55:28.341Z,60.77
2023-02-15T18:57:57.389Z,50.40
2023-02-15T19:00:29.805Z,36.43
2023-02-15T19:02:57.230Z,59.93
2023-02-15T19:05:25.142Z,49.63
2023-02-15T19:07:52.578Z,61.63
2023-02-15T19:10:23.418Z,39.60
2023-02-15T19:12:51.292Z,50.13
2023-02-15T19:15:22.301Z,112.00
2023-02-15T19:17:49.756Z,44.03
2023-02-15T19:20:22.379Z,87.33
2023-02-15T19:22:51.672Z,53.53
2023-02-15T19:25:27.733Z,40.07
2023-02-15T19:27:55.800Z,56.00
2023-02-15T19:30:28.694Z,34.07
2023-02-15T19:32:59.807Z,44.80
2023-02-15T19:35:34.242Z,47.93
2023-02-15T19:38:06.040Z,41.10
2023-02-15T19:40:35.506Z,39.77
2023-02-15T19:43:03.175Z,46.63
2023-02-15T19:45:37.045Z,56.00
2023-02-15T19:48:06.684Z,60.33
2023-02-15T19:50:34.504Z,88.93
2023-02-15T19:53:03.265Z,48.77
2023-02-15T19:55:35.613Z,61.27
2023-02-15T19:58:02.872Z,50.17
2023-02-15T20:00:34.118Z,49.77
2023-02-15T20:03:01.524Z,39.97
2023-02-15T20:05:32.018Z,80.63
2023-02-15T20:07:59.155Z,143.33
2023-02-15T20:10:31.694Z,74.27
2023-02-15T20:13:05.801Z,79.50
2023-02-15T20:16:05.080Z,86.50
2023-02-15T20:18:32.019Z,111.50
2023-02-15T20:21:03.881Z,76.37
2023-02-15T20:23:40.016Z,106.10
2023-02-15T20:26:31.404Z,35.77
2023-02-15T20:29:00.077Z,68.60
2023-02-15T20:31:27.197Z,60.77
2023-02-15T20:33:54.710Z,45.93
2023-02-15T20:36:23.666Z,46.40
2023-02-15T20:38:51.126Z,69.13
2023-02-15T20:41:40.677Z,38.03
2023-02-15T20:44:26.797Z,45.07
2023-02-15T20:46:55.804Z,69.97
2023-02-15T20:49:24.455Z,56.00
2023-02-15T20:51:52.939Z,66.30
2023-02-15T20:54:23.449Z,74.53
2023-02-15T20:56:50.553Z,64.17
2023-02-15T20:59:32.139Z,42.60
2023-02-15T21:02:02.419Z,35.53
2023-02-15T21:04:33.769Z,53.60
2023-02-15T21:07:01.249Z,56.40
2023-02-15T21:09:29.343Z,33.37
2023-02-15T21:11:59.534Z,57.83
2023-02-15T21:14:28.346Z,78.07
2023-02-15T21:16:56.365Z,50.80
2023-02-15T21:19:25.107Z,52.60
2023-02-15T21:21:53.603Z,37.65
2023-02-15T21:24:26.475Z,43.50
2023-02-15T21:27:00.567Z,65.30
2023-02-15T21:29:29.137Z,34.23
2023-02-15T21:32:00.611Z,42.50
2023-02-15T21:34:27.859Z,34.13
2023-02-15T21:36:55.070Z,30.80
2023-02-15T21:39:27.375Z,44.77
2023-02-15T21:42:14.870Z,42.27
2023-02-15T21:45:04.898Z,48.93
2023-02-15T21:47:50.490Z,49.37
2023-02-15T21:50:37.499Z,36.13
2023-02-15T21:53:06.061Z,39.90
2023-02-15T21:55:33.491Z,32.90
2023-02-15T21:58:02.711Z,31.70
2023-02-15T22:00:30.940Z,29.40
2023-02-15T22:02:59.907Z,30.90
2023-02-15T22:05:34.428Z,27.83
2023-02-15T22:08:01.411Z,28.93
2023-02-15T22:10:31.147Z,29.97
2023-02-15T22:13:05.072Z,28.40
2023-02-15T22:15:37.435Z,26.67
2023-02-15T22:18:05.764Z,28.90
2023-02-15T22:20:32.843Z,26.40
2023-02-15T22:22:59.732Z,29.03
2023-02-15T22:25:27.389Z,32.10
2023-02-15T22:27:55.727Z,36.37
2023-02-15T22:30:36.587Z,26.20
2023-02-15T22:33:03.936Z,26.30
2023-02-15T22:35:36.893Z,47.43
2023-02-15T22:38:03.913Z,28.67
2023-02-15T22:40:33.427Z,38.60
2023-02-15T22:43:03.916Z,33.60
2023-02-15T22:45:35.771Z,40.27
2023-02-15T22:48:02.882Z,36.40
2023-02-15T22:50:32.834Z,24.27
2023-02-15T22:53:01.535Z,29.50
2023-02-15T22:55:32.818Z,33.93
2023-02-15T22:58:00.625Z,40.57
2023-02-15T23:00:31.451Z,35.93
2023-02-15T23:02:58.554Z,38.60
2023-02-15T23:05:28.550Z,38.93
2023-02-15T23:07:56.237Z,45.90
2023-02-15T23:10:25.470Z,24.87
2023-02-15T23:13:25.917Z,26.50
2023-02-15T23:15:58.280Z,32.10
2023-02-15T23:18:26.942Z,28.17
2023-02-15T23:20:53.888Z,26.67
2023-02-15T23:23:33.274Z,25.90
2023-02-15T23:26:01.996Z,25.43
2023-02-15T23:28:36.266Z,24.20
2023-02-15T23:31:03.805Z,48.53
2023-02-15T23:33:34.014Z,29.37
2023-02-15T23:36:01.430Z,24.40
2023-02-15T23:38:30.998Z,28.17
2023-02-15T23:41:23.989Z,21.07
2023-02-15T23:43:56.563Z,23.27
2023-02-15T23:46:28.729Z,23.27
2023-02-15T23:48:59.846Z,19.90
2023-02-15T23:51:31.943Z,19.20
2023-02-15T23:53:59.262Z,20.93
2023-02-15T23:56:26.298Z,21.63
2023-02-15T23:58:53.348Z,19.37
